createdAt,value
2023-03-20T00:02:24.624Z,7.10
2023-03-20T00:04:53.173Z,7.10
2023-03-20T00:07:21.213Z,7.10
2023-03-20T00:09:49.492Z,7.10
2023-03-20T00:12:22.857Z,7.10
2023-03-20T00:14:52.400Z,7.00
2023-03-20T00:17:22.244Z,7.00
2023-03-20T00:19:50.696Z,6.90
2023-03-20T00:22:18.677Z,6.90
2023-03-20T00:24:46.745Z,6.80
2023-03-20T00:27:16.703Z,6.80
2023-03-20T00:29:45.859Z,6.80
2023-03-20T00:32:15.827Z,6.80
2023-03-20T00:34:44.051Z,6.80
2023-03-20T00:37:12.928Z,6.70
2023-03-20T00:39:41.115Z,6.70
2023-03-20T00:42:15.655Z,6.70
2023-03-20T00:44:49.738Z,6.70
2023-03-20T00:47:22.514Z,6.70
2023-03-20T00:49:52.264Z,6.60
2023-03-20T00:52:21.584Z,6.60
2023-03-20T00:54:49.805Z,6.60
2023-03-20T00:57:23.976Z,6.60
2023-03-20T00:59:56.104Z,6.60
2023-03-20T01:02:29.746Z,6.50
2023-03-20T01:04:58.448Z,6.50
2023-03-20T01:07:26.585Z,6.50
2023-03-20T01:09:54.903Z,6.50
2023-03-20T01:12:23.886Z,6.50
2023-03-20T01:14:55.751Z,6.40
2023-03-20T01:17:26.765Z,6.40
2023-03-20T01:19:54.782Z,6.40
2023-03-20T01:22:22.880Z,6.40
2023-03-20T01:24:50.915Z,6.40
2023-03-20T01:27:20.906Z,6.40
2023-03-20T01:29:49.040Z,6.40
2023-03-20T01:32:18.882Z,6.30
2023-03-20T01:34:48.554Z,6.30
2023-03-20T01:37:19.788Z,6.30
2023-03-20T01:39:47.756Z,6.30
2023-03-20T01:42:17.362Z,6.30
2023-03-20T01:44:46.748Z,6.20
2023-03-20T01:47:19.242Z,6.20
2023-03-20T01:50:23.320Z,6.20
2023-03-20T01:52:56.187Z,6.20
2023-03-20T01:55:24.645Z,6.20
2023-03-20T01:57:54.420Z,6.20
2023-03-20T02:00:23.874Z,6.20
2023-03-20T02:02:52.129Z,6.20
2023-03-20T02:05:24.652Z,6.20
2023-03-20T02:08:00.606Z,6.20
2023-03-20T02:10:29.044Z,6.20
2023-03-20T02:12:57.600Z,6.20
2023-03-20T02:15:27.836Z,6.20
2023-03-20T02:17:55.933Z,6.20
2023-03-20T02:20:37.743Z,6.20
2023-03-20T02:23:41.305Z,6.20
2023-03-20T02:26:27.543Z,6.20
2023-03-20T02:29:34.381Z,6.20
2023-03-20T02:32:38.900Z,6.20
2023-03-20T02:35:41.050Z,6.20
2023-03-20T02:38:41.545Z,6.10
2023-03-20T02:41:22.279Z,6.10
2023-03-20T02:44:02.145Z,6.10
2023-03-20T02:46:37.553Z,6.10
2023-03-20T02:49:17.821Z,6.10
2023-03-20T02:51:51.294Z,6.10
2023-03-20T02:54:27.129Z,6.10
2023-03-20T02:57:02.821Z,6.10
2023-03-20T02:59:35.419Z,6.00
2023-03-20T03:02:08.522Z,6.00
2023-03-20T03:04:39.616Z,6.00
2023-03-20T03:07:12.000Z,6.00
2023-03-20T03:09:46.230Z,6.00
2023-03-20T03:12:18.257Z,6.00
2023-03-20T03:14:49.715Z,6.00
2023-03-20T03:17:20.889Z,6.00
2023-03-20T03:19:52.990Z,6.00
2023-03-20T03:22:22.243Z,5.90
2023-03-20T03:24:53.242Z,6.00
2023-03-20T03:27:26.124Z,5.90
2023-03-20T03:29:58.678Z,5.90
2023-03-20T03:32:30.825Z,5.90
2023-03-20T03:35:01.123Z,5.90
2023-03-20T03:37:41.226Z,5.90
2023-03-20T03:40:20.722Z,5.90
2023-03-20T03:42:57.080Z,5.90
2023-03-20T03:45:32.804Z,5.90
2023-03-20T03:48:06.341Z,5.90
2023-03-20T03:50:39.460Z,5.80
2023-03-20T03:53:12.353Z,5.80
2023-03-20T03:55:44.451Z,5.80
2023-03-20T03:58:19.810Z,5.80
2023-03-20T04:00:50.626Z,5.80
2023-03-20T04:03:21.187Z,5.80
2023-03-20T04:05:50.766Z,5.70
2023-03-20T04:08:18.750Z,5.70
2023-03-20T04:10:46.748Z,5.70
2023-03-20T04:13:16.515Z,5.70
2023-03-20T04:15:44.702Z,5.70
2023-03-20T04:18:17.237Z,5.60
2023-03-20T04:20:46.131Z,5.60
2023-03-20T04:23:14.377Z,5.60
2023-03-20T04:25:42.653Z,5.60
2023-03-20T04:28:11.538Z,5.60
2023-03-20T04:30:41.044Z,5.60
2023-03-20T04:33:09.083Z,5.60
2023-03-20T04:35:37.564Z,5.60
2023-03-20T04:38:05.765Z,5.60
2023-03-20T04:40:33.739Z,5.50
2023-03-20T04:43:01.738Z,5.60
2023-03-20T04:45:29.806Z,5.60
2023-03-20T04:47:59.528Z,5.60
2023-03-20T04:50:27.698Z,5.50
2023-03-20T04:52:58.772Z,5.50
2023-03-20T04:55:26.837Z,5.50
2023-03-20T04:57:54.864Z,5.60
2023-03-20T05:00:23.507Z,5.60
2023-03-20T05:02:53.589Z,5.50
2023-03-20T05:05:23.633Z,5.50
2023-03-20T05:07:52.021Z,5.60
2023-03-20T05:10:20.207Z,5.50
2023-03-20T05:12:49.015Z,5.50
2023-03-20T05:15:17.126Z,5.60
2023-03-20T05:17:45.135Z,5.60
2023-03-20T05:20:13.471Z,5.60
2023-03-20T05:22:42.813Z,5.60
2023-03-20T05:25:11.190Z,5.60
2023-03-20T05:27:39.208Z,5.60
2023-03-20T05:30:08.207Z,5.60
2023-03-20T05:32:36.936Z,5.60
2023-03-20T05:35:05.302Z,5.60
2023-03-20T05:37:33.289Z,5.70
2023-03-20T05:40:03.164Z,5.70
2023-03-20T05:42:31.275Z,5.70
2023-03-20T05:44:59.268Z,5.70
2023-03-20T05:47:27.296Z,5.80
2023-03-20T05:49:55.476Z,5.80
2023-03-20T05:52:23.511Z,5.80
2023-03-20T05:54:51.514Z,5.80
2023-03-20T05:57:20.882Z,5.80
2023-03-20T05:59:48.823Z,5.90
2023-03-20T06:02:17.270Z,5.90
2023-03-20T06:04:45.830Z,5.90
2023-03-20T06:07:13.865Z,6.00
2023-03-20T06:09:41.926Z,6.00
2023-03-20T06:12:09.960Z,6.10
2023-03-20T06:14:39.443Z,6.10
2023-03-20T06:17:07.435Z,6.20
2023-03-20T06:19:35.661Z,6.30
2023-03-20T06:22:04.056Z,6.40
2023-03-20T06:24:36.087Z,6.50
2023-03-20T06:27:04.079Z,6.60
2023-03-20T06:29:34.393Z,6.70
2023-03-20T06:32:03.804Z,6.80
2023-03-20T06:34:31.857Z,6.90
2023-03-20T06:37:02.708Z,7.00
2023-03-20T06:39:30.767Z,7.10
2023-03-20T06:41:58.745Z,7.30
2023-03-20T06:44:27.010Z,7.70
2023-03-20T06:46:55.095Z,8.20
2023-03-20T06:49:24.689Z,8.90
2023-03-20T06:51:52.776Z,9.70
2023-03-20T06:54:20.983Z,10.30
2023-03-20T06:56:48.959Z,10.70
2023-03-20T06:59:17.048Z,11.50
2023-03-20T07:01:45.464Z,12.30
2023-03-20T07:04:17.421Z,13.00
2023-03-20T07:06:49.860Z,13.00
2023-03-20T07:09:18.586Z,13.00
2023-03-20T07:11:46.885Z,13.10
2023-03-20T07:14:17.726Z,13.40
2023-03-20T07:16:45.788Z,13.40
2023-03-20T07:19:16.020Z,13.10
2023-03-20T07:21:44.380Z,12.90
2023-03-20T07:24:16.259Z,13.60
2023-03-20T07:26:44.243Z,14.10
2023-03-20T07:29:14.046Z,14.60
2023-03-20T07:31:42.089Z,14.60
2023-03-20T07:34:12.279Z,14.40
2023-03-20T07:36:41.157Z,14.20
2023-03-20T07:39:12.120Z,14.00
2023-03-20T07:41:41.753Z,13.90
2023-03-20T07:44:10.520Z,14.00
2023-03-20T07:46:40.784Z,14.20
2023-03-20T07:49:09.082Z,14.20
2023-03-20T07:51:37.032Z,13.80
2023-03-20T07:54:05.512Z,13.50
2023-03-20T07:56:35.058Z,13.30
2023-03-20T07:59:04.741Z,13.20
2023-03-20T08:01:32.730Z,13.10
2023-03-20T08:04:01.046Z,13.10
2023-03-20T08:06:29.168Z,13.50
2023-03-20T08:08:57.632Z,13.80
2023-03-20T08:11:25.764Z,13.60
2023-03-20T08:13:53.959Z,13.30
2023-03-20T08:16:26.369Z,13.20
2023-03-20T08:18:58.468Z,13.60
2023-03-20T08:21:27.104Z,13.90
2023-03-20T08:23:55.210Z,14.60
2023-03-20T08:26:23.419Z,15.50
2023-03-20T08:28:52.566Z,16.00
2023-03-20T08:31:20.814Z,16.60
2023-03-20T08:33:50.342Z,17.10
2023-03-20T08:36:20.437Z,17.30
2023-03-20T08:38:49.220Z,17.20
2023-03-20T08:41:17.593Z,17.50
2023-03-20T08:43:46.208Z,17.70
2023-03-20T08:46:14.247Z,17.40
2023-03-20T08:48:42.334Z,17.40
2023-03-20T08:51:11.935Z,17.90
2023-03-20T08:53:40.091Z,18.50
2023-03-20T08:56:09.603Z,19.00
2023-03-20T08:58:37.872Z,19.30
2023-03-20T09:01:06.822Z,19.60
2023-03-20T09:03:35.143Z,20.10
2023-03-20T09:06:06.168Z,20.10
2023-03-20T09:08:37.946Z,20.00
2023-03-20T09:11:07.020Z,20.20
2023-03-20T09:13:35.331Z,20.40
2023-03-20T09:16:03.936Z,20.50
2023-03-20T09:18:32.025Z,20.70
2023-03-20T09:21:00.378Z,20.90
2023-03-20T09:23:32.486Z,20.80
2023-03-20T09:26:01.943Z,20.40
2023-03-20T09:28:30.221Z,19.70
2023-03-20T09:30:58.686Z,19.00
2023-03-20T09:33:27.670Z,18.60
2023-03-20T09:35:56.106Z,18.20
2023-03-20T09:38:24.379Z,17.90
2023-03-20T09:40:55.942Z,17.60
2023-03-20T09:43:34.719Z,17.60
2023-03-20T09:46:16.154Z,17.40
2023-03-20T09:48:53.044Z,17.00
2023-03-20T09:51:29.873Z,16.90
2023-03-20T09:54:01.442Z,16.90
2023-03-20T09:56:31.948Z,17.00
2023-03-20T09:59:07.643Z,17.20
2023-03-20T10:01:44.619Z,17.30
2023-03-20T10:04:15.518Z,17.30
2023-03-20T10:06:43.658Z,17.20
2023-03-20T10:09:22.547Z,17.10
2023-03-20T10:12:25.604Z,16.90
2023-03-20T10:15:02.996Z,16.80
2023-03-20T10:17:42.369Z,16.80
2023-03-20T10:20:22.248Z,17.10
2023-03-20T10:22:55.782Z,17.50
2023-03-20T10:25:32.496Z,17.70
2023-03-20T10:28:01.917Z,18.20
2023-03-20T10:30:51.329Z,18.80
2023-03-20T10:33:29.486Z,19.40
2023-03-20T10:36:11.126Z,19.40
2023-03-20T10:38:46.109Z,19.10
2023-03-20T10:41:18.582Z,19.00
2023-03-20T10:43:49.738Z,19.00
2023-03-20T10:46:24.598Z,18.80
2023-03-20T10:48:58.337Z,18.50
2023-03-20T10:51:39.876Z,18.40
2023-03-20T10:54:13.628Z,18.20
2023-03-20T10:56:47.997Z,18.00
2023-03-20T10:59:23.364Z,17.90
2023-03-20T11:01:52.872Z,17.80
2023-03-20T11:04:21.133Z,17.70
2023-03-20T11:06:57.464Z,17.60
2023-03-20T11:09:26.839Z,17.50
2023-03-20T11:11:58.432Z,17.30
2023-03-20T11:14:28.701Z,17.20
2023-03-20T11:17:03.919Z,17.10
2023-03-20T11:19:35.070Z,17.10
2023-03-20T11:22:22.919Z,17.10
2023-03-20T11:24:55.160Z,17.10
2023-03-20T11:27:28.956Z,17.00
2023-03-20T11:29:59.516Z,17.00
2023-03-20T11:32:33.160Z,16.90
2023-03-20T11:35:12.851Z,16.90
2023-03-20T11:37:46.468Z,16.90
2023-03-20T11:40:18.380Z,16.90
2023-03-20T11:42:56.126Z,16.90
2023-03-20T11:45:25.576Z,16.80
2023-03-20T11:47:58.002Z,16.80
2023-03-20T11:50:31.330Z,16.80
2023-03-20T11:53:02.609Z,16.90
2023-03-20T11:55:33.106Z,16.90
2023-03-20T11:58:02.851Z,16.80
2023-03-20T12:00:37.427Z,16.70
2023-03-20T12:03:29.704Z,16.70
2023-03-20T12:06:01.925Z,16.70
2023-03-20T12:08:36.518Z,16.60
2023-03-20T12:11:15.301Z,16.60
2023-03-20T12:13:47.245Z,16.60
2023-03-20T12:16:19.081Z,16.50
2023-03-20T12:18:52.401Z,16.40
2023-03-20T12:21:27.731Z,16.40
2023-03-20T12:24:01.760Z,16.40
2023-03-20T12:26:36.181Z,16.40
2023-03-20T12:29:11.367Z,16.40
2023-03-20T12:31:43.218Z,16.40
2023-03-20T12:34:20.209Z,16.50
2023-03-20T12:36:50.317Z,16.70
2023-03-20T12:39:21.315Z,16.80
2023-03-20T12:42:06.839Z,16.80
2023-03-20T12:44:40.607Z,16.70
2023-03-20T12:47:32.958Z,16.70
2023-03-20T12:50:11.623Z,16.80
2023-03-20T12:52:48.333Z,16.90
2023-03-20T12:55:26.792Z,17.00
2023-03-20T12:58:06.296Z,17.00
2023-03-20T13:00:37.732Z,16.90
2023-03-20T13:03:25.021Z,16.90
2023-03-20T13:06:03.085Z,17.00
2023-03-20T13:08:58.029Z,17.20
2023-03-20T13:11:37.449Z,17.20
2023-03-20T13:14:11.713Z,17.50
2023-03-20T13:16:49.943Z,17.50
2023-03-20T13:19:26.826Z,17.40
2023-03-20T13:22:00.312Z,17.30
2023-03-20T13:24:41.954Z,17.30
2023-03-20T13:27:27.778Z,17.30
2023-03-20T13:30:02.422Z,17.30
2023-03-20T13:32:42.180Z,17.20
2023-03-20T13:35:26.651Z,17.00
2023-03-20T13:37:58.882Z,16.90
2023-03-20T13:40:29.921Z,16.80
2023-03-20T13:43:06.446Z,16.70
2023-03-20T13:45:38.877Z,16.60
2023-03-20T13:48:20.913Z,16.50
2023-03-20T13:50:53.868Z,16.40
2023-03-20T13:53:31.630Z,16.40
2023-03-20T13:56:09.684Z,16.30
2023-03-20T13:58:58.907Z,16.20
2023-03-20T14:01:35.818Z,16.20
2023-03-20T14:04:05.831Z,16.10
2023-03-20T14:07:01.343Z,16.10
2023-03-20T14:09:41.299Z,16.00
2023-03-20T14:12:14.439Z,15.90
2023-03-20T14:14:44.673Z,15.90
2023-03-20T14:17:19.043Z,15.90
2023-03-20T14:19:50.439Z,15.90
2023-03-20T14:22:21.097Z,15.90
2023-03-20T14:24:57.648Z,15.90
2023-03-20T14:27:45.222Z,15.90
2023-03-20T14:30:41.108Z,15.90
2023-03-20T14:33:26.162Z,15.90
2023-03-20T14:36:18.586Z,15.80
2023-03-20T14:38:59.090Z,15.80
2023-03-20T14:41:35.432Z,15.80
2023-03-20T14:44:22.868Z,15.70
2023-03-20T14:46:54.248Z,15.70
2023-03-20T14:49:35.704Z,15.70
2023-03-20T14:52:24.692Z,15.70
2023-03-20T14:54:56.698Z,15.60
2023-03-20T14:57:48.803Z,15.60
2023-03-20T15:00:23.109Z,15.50
2023-03-20T15:02:54.153Z,15.50
2023-03-20T15:05:29.043Z,15.40
2023-03-20T15:07:59.465Z,15.40
2023-03-20T15:10:27.721Z,15.30
2023-03-20T15:12:58.194Z,15.30
2023-03-20T15:15:28.502Z,15.30
2023-03-20T15:18:05.804Z,15.20
2023-03-20T15:20:37.063Z,15.20
2023-03-20T15:23:06.129Z,15.10
2023-03-20T15:25:40.897Z,15.10
2023-03-20T15:28:16.259Z,15.00
2023-03-20T15:30:48.159Z,15.10
2023-03-20T15:33:19.866Z,15.00
2023-03-20T15:35:48.267Z,15.00
2023-03-20T15:38:18.167Z,14.90
2023-03-20T15:40:51.320Z,14.80
2023-03-20T15:43:24.130Z,14.80
2023-03-20T15:46:02.994Z,14.80
2023-03-20T15:48:38.343Z,14.70
2023-03-20T15:51:06.825Z,14.70
2023-03-20T15:53:38.699Z,14.70
2023-03-20T15:56:17.686Z,14.60
2023-03-20T15:58:50.595Z,14.60
2023-03-20T16:01:21.527Z,14.60
2023-03-20T16:03:50.495Z,14.50
2023-03-20T16:06:22.963Z,14.50
2023-03-20T16:08:59.584Z,14.40
2023-03-20T16:11:38.053Z,14.40
2023-03-20T16:14:09.104Z,14.30
2023-03-20T16:16:38.080Z,14.30
2023-03-20T16:19:07.596Z,14.20
2023-03-20T16:21:42.087Z,14.20
2023-03-20T16:24:16.475Z,14.10
2023-03-20T16:26:49.111Z,14.10
2023-03-20T16:29:20.066Z,14.00
2023-03-20T16:31:56.774Z,14.00
2023-03-20T16:34:27.886Z,14.00
2023-03-20T16:37:00.762Z,13.90
2023-03-20T16:39:30.279Z,13.90
2023-03-20T16:42:12.726Z,13.90
2023-03-20T16:44:43.248Z,13.80
2023-03-20T16:47:20.103Z,13.70
2023-03-20T16:50:10.339Z,13.70
2023-03-20T16:52:40.897Z,13.70
2023-03-20T16:55:18.452Z,13.60
2023-03-20T16:57:49.660Z,13.60
2023-03-20T17:00:30.907Z,13.50
2023-03-20T17:03:10.889Z,13.50
2023-03-20T17:05:48.114Z,13.40
2023-03-20T17:08:17.927Z,13.40
2023-03-20T17:10:50.334Z,13.30
2023-03-20T17:13:18.383Z,13.30
2023-03-20T17:15:47.725Z,13.30
2023-03-20T17:18:15.967Z,13.20
2023-03-20T17:20:43.933Z,13.20
2023-03-20T17:23:18.763Z,13.20
2023-03-20T17:25:47.322Z,13.10
2023-03-20T17:28:23.241Z,13.10
2023-03-20T17:30:54.514Z,13.00
2023-03-20T17:33:22.666Z,13.00
2023-03-20T17:35:50.847Z,12.90
2023-03-20T17:38:22.331Z,12.90
2023-03-20T17:40:51.062Z,12.90
2023-03-20T17:43:20.797Z,12.80
2023-03-20T17:45:49.273Z,12.80
2023-03-20T17:48:20.950Z,12.70
2023-03-20T17:50:50.233Z,12.70
2023-03-20T17:53:24.019Z,12.70
2023-03-20T17:55:52.858Z,12.60
2023-03-20T17:58:22.879Z,12.60
2023-03-20T18:00:52.302Z,12.50
2023-03-20T18:03:24.340Z,12.50
2023-03-20T18:05:53.583Z,12.50
2023-03-20T18:08:23.154Z,12.40
2023-03-20T18:10:52.727Z,12.40
2023-03-20T18:13:21.429Z,12.30
2023-03-20T18:15:49.904Z,12.30
2023-03-20T18:18:18.487Z,12.30
2023-03-20T18:20:49.421Z,12.20
2023-03-20T18:23:17.475Z,12.20
2023-03-20T18:25:45.533Z,12.10
2023-03-20T18:28:18.462Z,12.00
2023-03-20T18:30:46.628Z,12.00
2023-03-20T18:33:15.325Z,12.00
2023-03-20T18:35:43.912Z,11.90
2023-03-20T18:38:14.493Z,11.90
2023-03-20T18:40:47.061Z,11.80
2023-03-20T18:43:15.484Z,11.80
2023-03-20T18:45:43.575Z,11.80
2023-03-20T18:48:18.238Z,11.80
2023-03-20T18:50:53.390Z,11.70
2023-03-20T18:53:22.738Z,11.70
2023-03-20T18:55:52.377Z,11.70
2023-03-20T18:58:22.635Z,11.70
2023-03-20T19:00:51.256Z,11.60
2023-03-20T19:03:23.618Z,11.60
2023-03-20T19:05:52.652Z,11.60
2023-03-20T19:08:22.620Z,11.50
2023-03-20T19:10:51.515Z,11.40
2023-03-20T19:13:21.373Z,11.40
2023-03-20T19:15:49.512Z,11.30
2023-03-20T19:18:19.413Z,11.30
2023-03-20T19:20:49.013Z,11.30
2023-03-20T19:23:19.929Z,11.20
2023-03-20T19:25:51.468Z,11.20
2023-03-20T19:28:37.719Z,11.20
2023-03-20T19:31:09.455Z,11.10
2023-03-20T19:33:40.843Z,11.10
2023-03-20T19:36:17.532Z,11.00
2023-03-20T19:38:45.663Z,11.00
2023-03-20T19:41:19.876Z,11.00
2023-03-20T19:43:53.133Z,10.90
2023-03-20T19:46:38.621Z,10.90
2023-03-20T19:49:07.742Z,10.80
2023-03-20T19:51:35.816Z,10.80
2023-03-20T19:54:04.004Z,10.70
2023-03-20T19:56:34.516Z,10.70
2023-03-20T19:59:03.227Z,10.70
2023-03-20T20:01:31.684Z,10.60
2023-03-20T20:03:59.860Z,10.60
2023-03-20T20:06:32.114Z,10.60
2023-03-20T20:09:05.188Z,10.60
2023-03-20T20:11:34.665Z,10.60
2023-03-20T20:14:08.725Z,10.50
2023-03-20T20:16:42.447Z,10.50
2023-03-20T20:19:10.675Z,10.50
2023-03-20T20:24:29.789Z,10.50
2023-03-20T20:27:15.921Z,10.50
2023-03-20T20:29:48.019Z,10.50
2023-03-20T20:32:23.455Z,10.40
2023-03-20T20:35:39.937Z,10.30
2023-03-20T20:38:27.071Z,10.40
2023-03-20T20:40:30.696Z,10.40
2023-03-20T20:43:02.435Z,10.40
2023-03-20T20:45:32.117Z,10.30
2023-03-20T20:48:03.293Z,10.30
2023-03-20T20:50:33.256Z,10.30
2023-03-20T20:53:01.265Z,10.30
2023-03-20T20:55:30.620Z,10.30
2023-03-20T20:58:01.303Z,10.30
2023-03-20T21:00:47.935Z,10.30
2023-03-20T21:03:18.030Z,10.30
2023-03-20T21:05:46.236Z,10.30
2023-03-20T21:08:16.402Z,10.20
2023-03-20T21:10:46.243Z,10.20
2023-03-20T21:13:15.947Z,10.20
2023-03-20T21:15:45.469Z,10.20
2023-03-20T21:18:13.987Z,10.20
2023-03-20T21:20:42.240Z,10.20
2023-03-20T21:23:12.340Z,10.10
2023-03-20T21:25:43.614Z,10.10
2023-03-20T21:28:18.754Z,10.10
2023-03-20T21:31:12.692Z,10.00
2023-03-20T21:33:38.990Z,10.00
2023-03-20T21:36:07.993Z,10.00
2023-03-20T21:41:24.808Z,10.00
2023-03-20T21:43:54.181Z,9.90
2023-03-20T22:01:21.719Z,9.80
2023-03-20T22:03:29.097Z,9.80
2023-03-20T22:06:56.328Z,9.80
2023-03-20T22:12:18.448Z,9.80
2023-03-20T22:20:49.753Z,9.70
2023-03-20T22:24:37.587Z,9.70
2023-03-20T22:32:20.888Z,9.60
2023-03-20T22:43:15.010Z,9.60
2023-03-20T22:45:42.607Z,9.60
2023-03-20T22:48:16.047Z,9.50
2023-03-20T22:50:45.762Z,9.50
2023-03-20T22:53:13.731Z,9.50
2023-03-20T22:55:43.968Z,9.60
2023-03-20T22:58:12.687Z,9.50
2023-03-20T23:00:41.495Z,9.50
2023-03-20T23:03:20.001Z,9.50
2023-03-20T23:05:59.231Z,9.50
2023-03-20T23:08:28.085Z,9.50
2023-03-20T23:10:56.409Z,9.50
2023-03-20T23:13:24.488Z,9.50
2023-03-20T23:15:52.477Z,9.50
2023-03-20T23:18:20.807Z,9.50
2023-03-20T23:20:48.869Z,9.50
2023-03-20T23:23:18.311Z,9.50
2023-03-20T23:25:46.324Z,9.50
2023-03-20T23:28:16.940Z,9.50
2023-03-20T23:30:51.762Z,9.50
2023-03-20T23:33:27.720Z,9.50
2023-03-20T23:36:12.451Z,9.50
2023-03-20T23:38:45.963Z,9.50
2023-03-20T23:41:16.313Z,9.50
2023-03-20T23:43:44.431Z,9.50
2023-03-20T23:46:12.737Z,9.50
2023-03-20T23:48:41.016Z,9.40
2023-03-20T23:51:09.519Z,9.50
2023-03-20T23:53:37.495Z,9.40
2023-03-20T23:56:08.131Z,9.40
2023-03-20T23:58:41.897Z,9.40
